Terminal Aerodrome Forecast
Issued by NWS Charleston, WV

Home | Current Version | Previous Version | Text Only | Print | Product List | Glossary On
Versions: 1 2 3 4 5 6 7 8 9 10 11 12 13 14 15 16 17 18 19 20 21 22 23 24 25 26 27 28
000
FTUS41 KRLX 011700
TAFBKW
TAF
KBKW 011721Z 0118/0218 15010G17KT P6SM SCT140
     FM012100 18011G19KT P6SM BKN110
     FM020000 17012G20KT 6SM -RA BR OVC025
     FM020800 23010G17KT 3SM -RA BR OVC015
     FM021200 27011G19KT 2SM -RASN BR OVC008
     FM021300 27012G20KT 1/2SM SN OVC006
     FM021700 29016G27KT 2SM -SHSN OVC010=

USA.gov is the U.S. government's official web portal to all federal, state and local government web resources and services.